createdAt,value
2022-08-21T00:01:30.243Z,2.3
2022-08-21T00:03:32.161Z,3.9
2022-08-21T00:04:34.683Z,2.2
2022-08-21T00:10:40.443Z,2.5
2022-08-21T00:12:45.470Z,3
2022-08-21T00:14:47.389Z,2
2022-08-21T00:18:51.215Z,2.3
2022-08-21T00:20:53.129Z,2.3
2022-08-21T00:24:56.966Z,3.2
2022-08-21T00:27:02.019Z,2.7
2022-08-21T00:29:03.944Z,2.8
2022-08-21T00:31:05.882Z,3.5
2022-08-21T00:33:07.782Z,2.9
2022-08-21T00:35:09.710Z,3.1
2022-08-21T00:37:11.641Z,3.2
2022-08-21T00:39:13.548Z,2.7
2022-08-21T00:41:36.777Z,3.7
2022-08-21T00:43:20.577Z,2.8
2022-08-21T00:45:22.460Z,3
2022-08-21T00:47:24.377Z,2.8
2022-08-21T00:49:26.303Z,2.4
2022-08-21T00:53:30.141Z,2.8
2022-08-21T00:55:35.217Z,2.7
2022-08-21T00:57:37.157Z,2.7
2022-08-21T00:59:39.067Z,2.4
2022-08-21T01:00:41.665Z,2.7
2022-08-21T01:02:43.548Z,2.6
2022-08-21T01:08:52.443Z,2.9
2022-08-21T01:10:54.736Z,2.4
2022-08-21T01:14:58.194Z,3.2
2022-08-21T01:17:00.139Z,3.4
2022-08-21T01:19:02.067Z,2.7
2022-08-21T01:21:03.948Z,3.1
2022-08-21T01:23:09.023Z,2.7
2022-08-21T01:25:10.958Z,2.6
2022-08-21T01:27:12.868Z,3.2
2022-08-21T01:29:14.789Z,3.6
2022-08-21T01:35:20.573Z,3.1
2022-08-21T01:37:25.636Z,2.4
2022-08-21T01:43:34.001Z,3.6
2022-08-21T01:45:33.357Z,4.2
2022-08-21T01:47:35.288Z,3
2022-08-21T01:49:37.214Z,2.9
2022-08-21T01:51:42.275Z,3.8
2022-08-21T01:53:44.224Z,2.7
2022-08-21T01:55:46.144Z,2.9
2022-08-21T01:58:14.822Z,3.2
2022-08-21T02:08:27.594Z,3.6
2022-08-21T02:12:31.466Z,3.4
2022-08-21T02:14:33.398Z,3.2
2022-08-21T02:16:35.412Z,3.5
2022-08-21T02:20:42.409Z,3.5
2022-08-21T02:24:53.685Z,3.5
2022-08-21T02:26:48.173Z,3.5
2022-08-21T02:28:50.084Z,3.7
2022-08-21T02:30:52.016Z,3.5
2022-08-21T02:32:57.410Z,3.7
2022-08-21T02:34:59.013Z,3
2022-08-21T02:37:00.964Z,3.5
2022-08-21T02:39:02.876Z,3.5
2022-08-21T02:41:04.804Z,4.1
2022-08-21T02:43:06.735Z,3
2022-08-21T02:47:13.724Z,3.4
2022-08-21T02:49:15.476Z,4
2022-08-21T02:51:17.423Z,3.9
2022-08-21T02:52:19.947Z,3.2
2022-08-21T02:54:21.899Z,4.2
2022-08-21T02:56:23.799Z,2.8
2022-08-21T03:00:30.919Z,3.5
2022-08-21T03:02:32.865Z,3.6
2022-08-21T03:04:34.883Z,2.9
2022-08-21T03:08:38.858Z,3.4
2022-08-21T03:10:40.889Z,3.9
2022-08-21T03:12:42.818Z,3.8
2022-08-21T03:14:48.002Z,3.6
2022-08-21T03:16:49.917Z,4
2022-08-21T03:18:51.885Z,3.2
2022-08-21T03:20:53.890Z,3.2
2022-08-21T03:22:55.811Z,4.3
2022-08-21T03:26:59.710Z,3.5
2022-08-21T03:29:04.740Z,4
2022-08-21T03:35:10.522Z,3.4
2022-08-21T03:37:12.449Z,2.9
2022-08-21T03:43:21.375Z,3.4
2022-08-21T03:45:23.305Z,3.7
2022-08-21T03:47:25.351Z,3.9
2022-08-21T03:50:30.014Z,4.1
2022-08-21T03:52:31.940Z,3.6
2022-08-21T03:58:40.877Z,3.4
2022-08-21T04:00:42.792Z,3.1
2022-08-21T04:02:44.732Z,4
2022-08-21T04:04:46.667Z,3.8
2022-08-21T04:08:50.616Z,3.3
2022-08-21T04:10:55.720Z,4.2
2022-08-21T04:12:57.836Z,5
2022-08-21T04:14:59.692Z,3.7
2022-08-21T04:17:01.710Z,4.3
2022-08-21T04:19:03.730Z,3.7
2022-08-21T04:21:05.655Z,4.1
2022-08-21T04:23:07.588Z,3.9
2022-08-21T04:25:12.857Z,3.7
2022-08-21T04:27:14.905Z,4.5
2022-08-21T04:29:16.917Z,5.1
2022-08-21T04:31:18.953Z,4.6
2022-08-21T04:33:20.996Z,4.8
2022-08-21T04:35:23.014Z,4.4
2022-08-21T04:37:25.028Z,4
2022-08-21T04:39:30.549Z,4.5
2022-08-21T04:41:32.606Z,4.4
2022-08-21T04:43:34.623Z,5.1
2022-08-21T04:48:41.000Z,4.8
2022-08-21T04:50:42.940Z,4.5
2022-08-21T04:52:48.107Z,5.4
2022-08-21T04:54:53.126Z,5.8
2022-08-21T04:56:52.106Z,5.1
2022-08-21T04:58:54.109Z,4.8
2022-08-21T05:00:56.161Z,5.8
2022-08-21T05:02:58.287Z,4.4
2022-08-21T05:05:00.125Z,5.2
2022-08-21T05:07:05.289Z,4.9
2022-08-21T05:13:11.176Z,5.2
2022-08-21T05:15:13.584Z,5.3
2022-08-21T05:17:15.042Z,5
2022-08-21T05:21:22.037Z,4.2
2022-08-21T05:23:23.948Z,5.4
2022-08-21T05:25:25.869Z,5
2022-08-21T05:27:27.878Z,5.2
2022-08-21T05:29:29.723Z,5.3
2022-08-21T05:31:31.657Z,5.3
2022-08-21T05:33:33.597Z,3.8
2022-08-21T05:35:38.810Z,5.8
2022-08-21T05:37:40.553Z,4.8
2022-08-21T05:40:11.827Z,4.6
2022-08-21T05:42:12.503Z,5.7
2022-08-21T05:44:14.446Z,5.1
2022-08-21T05:46:16.318Z,3.8
2022-08-21T05:48:21.393Z,5.1
2022-08-21T05:50:23.317Z,5.3
2022-08-21T05:52:25.202Z,4.9
2022-08-21T05:54:27.134Z,4.9
2022-08-21T05:56:29.051Z,5.7
2022-08-21T05:58:30.983Z,4.8
2022-08-21T06:00:32.890Z,6
2022-08-21T06:04:39.838Z,5.3
2022-08-21T06:06:41.747Z,5.5
2022-08-21T06:08:43.650Z,6
2022-08-21T06:10:45.561Z,4.5
2022-08-21T06:12:47.469Z,5.8
2022-08-21T06:14:49.358Z,4.8
2022-08-21T06:16:54.395Z,5.4
2022-08-21T06:19:00.714Z,5.4
2022-08-21T06:20:58.226Z,4.3
2022-08-21T06:23:00.377Z,5.2
2022-08-21T06:25:02.034Z,4.7
2022-08-21T06:29:05.841Z,4.5
2022-08-21T06:36:17.226Z,3.7
2022-08-21T06:38:19.130Z,5.6
2022-08-21T06:40:21.110Z,6.2
2022-08-21T06:42:22.937Z,3.2
2022-08-21T06:44:27.965Z,3.2
2022-08-21T06:46:29.841Z,2.6
2022-08-21T06:48:31.736Z,3.5
2022-08-21T06:50:33.630Z,3.6
2022-08-21T06:52:35.515Z,2.3
2022-08-21T06:54:37.408Z,3.1
2022-08-21T06:56:39.304Z,2.5
2022-08-21T06:58:44.405Z,4.6
2022-08-21T07:00:46.217Z,3.4
2022-08-21T07:04:49.978Z,3.3
2022-08-21T07:06:51.855Z,2.9
2022-08-21T07:08:53.754Z,2.1
2022-08-21T07:10:55.628Z,2.5
2022-08-21T07:13:01.654Z,3.3
2022-08-21T07:15:02.552Z,3.1
2022-08-21T07:21:08.194Z,3.3
2022-08-21T07:23:10.079Z,2
2022-08-21T07:25:11.956Z,2.2
2022-08-21T07:31:20.742Z,2.2
2022-08-21T07:32:23.267Z,3
2022-08-21T07:34:25.117Z,2.1
2022-08-21T07:36:26.976Z,2.7
2022-08-21T07:38:28.850Z,2.1
2022-08-21T07:40:33.851Z,2
2022-08-21T07:42:35.692Z,2.9
2022-08-21T07:44:37.547Z,1.6
2022-08-21T07:46:39.377Z,1.7
2022-08-21T07:48:41.218Z,1.7
2022-08-21T07:50:43.049Z,1.9
2022-08-21T07:52:44.899Z,2.9
2022-08-21T07:56:51.755Z,2.1
2022-08-21T07:58:53.588Z,2.2
2022-08-21T08:00:55.470Z,2.2
2022-08-21T08:02:57.515Z,2.4
2022-08-21T08:04:59.131Z,2.5
2022-08-21T08:09:05.987Z,3.5
2022-08-21T08:11:07.841Z,2.9
2022-08-21T08:13:10.589Z,2.6
2022-08-21T08:15:11.535Z,2.5
2022-08-21T08:17:13.388Z,2.5
2022-08-21T08:19:15.230Z,3.5
2022-08-21T08:21:17.077Z,2.6
2022-08-21T08:23:22.096Z,3.3
2022-08-21T08:25:23.937Z,2.8
2022-08-21T08:27:25.800Z,2.8
2022-08-21T08:32:31.985Z,1.6
2022-08-21T08:42:44.371Z,3.2
2022-08-21T08:44:46.200Z,2.5
2022-08-21T08:46:48.031Z,2.7
2022-08-21T08:48:52.833Z,3.4
2022-08-21T08:50:54.882Z,3.2
2022-08-21T08:52:56.845Z,2.2
2022-08-21T08:54:58.556Z,1.8
2022-08-21T08:57:00.388Z,3
2022-08-21T08:59:02.243Z,1.8
2022-08-21T09:01:04.148Z,2.2
2022-08-21T09:03:05.879Z,2.1
2022-08-21T09:05:10.883Z,2.6
2022-08-21T09:07:12.684Z,1.5
2022-08-21T09:09:14.521Z,2.7
2022-08-21T09:11:16.352Z,2.4
2022-08-21T09:13:18.181Z,3.4
2022-08-21T09:15:19.981Z,2.8
2022-08-21T09:19:26.792Z,2.4
2022-08-21T09:25:58.883Z,2.7
2022-08-21T09:28:00.684Z,2.2
2022-08-21T09:30:02.507Z,2.3
2022-08-21T09:32:07.464Z,2.1
2022-08-21T09:36:11.110Z,1.4
2022-08-21T09:38:12.922Z,2
2022-08-21T09:46:23.309Z,1.4
2022-08-21T09:48:26.253Z,2.4
2022-08-21T09:50:26.930Z,1
2022-08-21T09:56:32.340Z,1.9
2022-08-21T09:58:34.130Z,2.1
2022-08-21T10:00:39.220Z,1.9
2022-08-21T10:02:40.905Z,2.3
2022-08-21T10:04:42.692Z,2.2
2022-08-21T10:06:44.470Z,1.9
2022-08-21T10:08:46.261Z,1.7
2022-08-21T10:10:47.955Z,2.7
2022-08-21T10:14:54.681Z,2.5
2022-08-21T10:16:56.457Z,1.7
2022-08-21T10:18:58.271Z,1.5
2022-08-21T10:20:00.740Z,1.7
2022-08-21T10:22:02.537Z,1.3
2022-08-21T10:24:04.455Z,1.2
2022-08-21T10:26:13.768Z,2.1
2022-08-21T10:28:13.692Z,2
2022-08-21T10:30:12.925Z,1.7
2022-08-21T10:32:25.871Z,1.2
2022-08-21T10:34:16.415Z,1.1
2022-08-21T10:36:18.185Z,1.5
2022-08-21T10:38:46.304Z,1.9
2022-08-21T10:40:21.772Z,1.6
2022-08-21T10:42:28.508Z,2
2022-08-21T10:44:28.449Z,1.8
2022-08-21T10:46:30.196Z,1.9
2022-08-21T10:48:32.031Z,2
2022-08-21T10:50:33.790Z,1.3
2022-08-21T10:52:35.533Z,1.6
2022-08-21T10:54:37.344Z,1.5
2022-08-21T10:56:42.261Z,1.6
2022-08-21T10:58:44.819Z,1.6
2022-08-21T11:00:45.845Z,1.2
2022-08-21T11:02:47.571Z,1.5
2022-08-21T11:04:50.099Z,1.9
2022-08-21T11:06:51.095Z,1.4
2022-08-21T11:08:52.869Z,1.8
2022-08-21T11:10:59.415Z,1.5
2022-08-21T11:12:59.740Z,0.9
2022-08-21T11:15:01.346Z,1.7
2022-08-21T11:16:03.814Z,1.3
2022-08-21T11:18:05.561Z,1.6
2022-08-21T11:20:07.317Z,1.1
2022-08-21T11:22:09.329Z,2.9
2022-08-21T11:26:15.791Z,1.6
2022-08-21T11:28:17.536Z,1.4
2022-08-21T11:30:20.848Z,1.5
2022-08-21T11:32:22.593Z,1
2022-08-21T11:34:24.309Z,1.7
2022-08-21T11:36:26.053Z,1.8
2022-08-21T11:38:31.149Z,1.5
2022-08-21T11:40:32.729Z,1.4
2022-08-21T11:44:36.242Z,1.9
2022-08-21T11:46:37.980Z,1.4
2022-08-21T11:48:39.738Z,1.6
2022-08-21T11:50:41.465Z,1.6
2022-08-21T11:52:46.394Z,1.7
2022-08-21T11:54:48.140Z,1.3
2022-08-21T11:56:49.875Z,3.4
2022-08-21T11:58:51.619Z,1.4
2022-08-21T12:00:53.353Z,1.6
2022-08-21T12:02:55.186Z,1.5
2022-08-21T12:04:56.831Z,1.5
2022-08-21T12:07:01.769Z,1.3
2022-08-21T12:09:03.541Z,1.4
2022-08-21T12:11:05.244Z,1
2022-08-21T12:12:07.697Z,1.5
2022-08-21T12:14:09.431Z,1.2
2022-08-21T12:16:11.166Z,2.2
2022-08-21T12:18:12.929Z,1.5
2022-08-21T12:20:17.839Z,1.4
2022-08-21T12:22:19.558Z,1.9
2022-08-21T12:24:21.306Z,1.7
2022-08-21T12:26:23.013Z,1.4
2022-08-21T12:28:24.754Z,1.2
2022-08-21T12:32:28.227Z,2.1
2022-08-21T12:34:33.156Z,1.8
2022-08-21T12:36:38.604Z,2
2022-08-21T12:38:36.622Z,1.5
2022-08-21T12:44:41.876Z,1.3
2022-08-21T12:46:43.587Z,1.7
2022-08-21T12:50:50.242Z,1.5
2022-08-21T12:52:52.095Z,1.5
2022-08-21T12:54:53.730Z,2
2022-08-21T12:56:55.451Z,4.7
2022-08-21T12:58:57.167Z,1.8
2022-08-21T13:00:58.907Z,1.1
2022-08-21T13:03:03.821Z,2
2022-08-21T13:05:05.550Z,2
2022-08-21T13:07:07.291Z,2
2022-08-21T13:09:35.686Z,1.7
2022-08-21T13:11:37.425Z,1.7
2022-08-21T13:13:44.571Z,1.7
2022-08-21T13:15:47.829Z,1.3
2022-08-21T13:17:45.764Z,1.3
2022-08-21T13:19:47.482Z,2
2022-08-21T13:21:49.200Z,1.2
2022-08-21T13:23:50.929Z,1.8
2022-08-21T13:25:52.658Z,1.5
2022-08-21T13:27:54.376Z,1.9
2022-08-21T13:32:01.006Z,1.7
2022-08-21T13:36:04.605Z,1.5
2022-08-21T13:38:06.168Z,2.1
2022-08-21T13:40:07.938Z,1.8
2022-08-21T13:42:09.635Z,1.8
2022-08-21T13:46:16.271Z,1.8
2022-08-21T13:52:21.407Z,1.9
2022-08-21T13:54:23.131Z,1.7
2022-08-21T13:56:24.884Z,1.6
2022-08-21T13:58:29.760Z,1.8
2022-08-21T14:00:31.469Z,1.5
2022-08-21T14:02:33.194Z,1.4
2022-08-21T14:05:37.364Z,1.9
2022-08-21T14:07:39.084Z,1.6
2022-08-21T14:09:40.799Z,2
2022-08-21T14:11:45.682Z,1.3
2022-08-21T14:13:47.413Z,2
2022-08-21T14:15:49.123Z,1.7
2022-08-21T14:17:50.830Z,2.1
2022-08-21T14:19:52.571Z,1.7
2022-08-21T14:21:54.268Z,1.4
2022-08-21T14:23:55.991Z,1.9
2022-08-21T14:26:00.875Z,1.5
2022-08-21T14:28:02.605Z,1.4
2022-08-21T14:30:04.488Z,1.8
2022-08-21T14:32:06.054Z,1.6
2022-08-21T14:34:19.307Z,1.8
2022-08-21T14:36:09.491Z,1.4
2022-08-21T14:38:11.227Z,1.5
2022-08-21T14:40:16.371Z,2.2
2022-08-21T14:42:17.868Z,1.4
2022-08-21T14:44:19.598Z,1.4
2022-08-21T14:46:21.343Z,1.5
2022-08-21T14:48:23.090Z,1.5
2022-08-21T14:50:27.920Z,1.5
2022-08-21T14:52:26.544Z,1
2022-08-21T14:54:32.222Z,1.5
2022-08-21T14:56:33.207Z,1.2
2022-08-21T14:58:34.943Z,2.1
2022-08-21T14:59:37.402Z,2.6
2022-08-21T15:01:39.165Z,1.6
2022-08-21T15:03:40.927Z,3.9
2022-08-21T15:05:42.646Z,1.8
2022-08-21T15:07:47.569Z,1.4
2022-08-21T15:09:49.313Z,2.8
2022-08-21T15:11:51.034Z,2.1
2022-08-21T15:13:52.793Z,2.2
2022-08-21T15:15:54.521Z,2.3
2022-08-21T15:17:56.262Z,2.3
2022-08-21T15:19:57.991Z,2.4
2022-08-21T15:22:02.999Z,2.5
2022-08-21T15:24:04.662Z,4.3
2022-08-21T15:26:06.414Z,2.7
2022-08-21T15:28:08.150Z,4.2
2022-08-21T15:30:10.105Z,4.6
2022-08-21T15:32:11.657Z,2.6
2022-08-21T15:34:13.404Z,1.6
2022-08-21T15:36:18.325Z,2.9
2022-08-21T15:38:20.101Z,2.3
2022-08-21T15:40:22.127Z,4.1
2022-08-21T15:42:23.616Z,3.1
2022-08-21T15:44:25.372Z,1.7
2022-08-21T15:46:27.164Z,2
2022-08-21T15:48:28.909Z,1.9
2022-08-21T15:50:33.961Z,2.5
2022-08-21T15:52:35.614Z,2
2022-08-21T15:54:37.363Z,2.1
2022-08-21T15:55:39.849Z,5.1
2022-08-21T15:57:41.609Z,4.2
2022-08-21T15:59:43.387Z,3.6
2022-08-21T16:01:45.356Z,2.2
2022-08-21T16:03:50.077Z,1.5
2022-08-21T16:05:51.881Z,4.7
2022-08-21T16:07:53.651Z,3.9
2022-08-21T16:09:55.421Z,1.8
2022-08-21T16:13:58.958Z,4.1
2022-08-21T16:16:00.736Z,2.4
2022-08-21T16:18:05.683Z,3.6
2022-08-21T16:20:07.486Z,1.9
2022-08-21T16:22:09.249Z,2.1
2022-08-21T16:24:11.027Z,2.5
2022-08-21T16:26:14.144Z,2.3
2022-08-21T16:30:16.367Z,2
2022-08-21T16:32:21.321Z,1.3
2022-08-21T16:34:23.102Z,1.7
2022-08-21T16:36:24.892Z,4
2022-08-21T16:38:26.707Z,7.4
2022-08-21T16:40:28.480Z,3.6
2022-08-21T16:42:30.248Z,2.3
2022-08-21T16:44:32.029Z,3.2
2022-08-21T16:46:37.011Z,4.2
2022-08-21T16:48:38.791Z,2.6
2022-08-21T16:50:40.576Z,2.3
2022-08-21T16:53:08.996Z,2.6
2022-08-21T16:55:10.786Z,3.2
2022-08-21T16:57:12.596Z,2.3
2022-08-21T16:59:17.730Z,2.6
2022-08-21T17:01:19.419Z,6.8
2022-08-21T17:03:21.151Z,6.1
2022-08-21T17:05:22.932Z,4.8
2022-08-21T17:07:24.720Z,2.8
2022-08-21T17:11:37.280Z,8.3
2022-08-21T17:13:33.308Z,3
2022-08-21T17:15:35.096Z,5.7
2022-08-21T17:17:36.873Z,3.5
2022-08-21T17:19:38.705Z,7.9
2022-08-21T17:21:42.032Z,4.1
2022-08-21T17:23:43.801Z,2.4
2022-08-21T17:25:45.615Z,3.3
2022-08-21T17:27:50.572Z,3.7
2022-08-21T17:29:52.378Z,2
2022-08-21T17:33:56.480Z,2.9
2022-08-21T17:35:57.801Z,1.5
2022-08-21T17:37:59.594Z,3.2
2022-08-21T17:42:06.402Z,2.1
2022-08-21T17:44:08.203Z,10.2
2022-08-21T17:46:10.019Z,6.8
2022-08-21T17:49:15.242Z,4.8
2022-08-21T17:51:17.038Z,9.3
2022-08-21T17:53:18.862Z,5.5
2022-08-21T17:55:23.878Z,3
2022-08-21T17:57:25.671Z,8.8
2022-08-21T17:59:27.470Z,3.8
2022-08-21T18:01:29.399Z,3.1
2022-08-21T18:03:31.122Z,2.2
2022-08-21T18:05:32.916Z,2.5
2022-08-21T18:07:34.751Z,2
2022-08-21T18:11:41.556Z,2.2
2022-08-21T18:13:43.381Z,3.7
2022-08-21T18:15:45.193Z,1.9
2022-08-21T18:17:47.005Z,1.9
2022-08-21T18:19:49.424Z,2
2022-08-21T18:23:55.682Z,3.8
2022-08-21T18:25:57.498Z,1.1
2022-08-21T18:27:59.314Z,1.9
2022-08-21T18:30:01.142Z,1
2022-08-21T18:32:02.963Z,1.4
2022-08-21T18:34:04.831Z,2.4
2022-08-21T18:36:06.606Z,2.1
2022-08-21T18:38:11.613Z,1.8
2022-08-21T18:40:13.511Z,2.9
2022-08-21T18:42:15.282Z,3
2022-08-21T18:43:17.755Z,2.9
2022-08-21T18:47:21.412Z,4.2
2022-08-21T18:49:23.236Z,4
2022-08-21T18:51:28.235Z,2.9
2022-08-21T18:53:30.081Z,3.6
2022-08-21T18:55:31.903Z,3
2022-08-21T18:57:33.748Z,2.2
2022-08-21T18:59:35.550Z,1.5
2022-08-21T19:01:37.394Z,1.6
2022-08-21T19:05:44.227Z,2
2022-08-21T19:15:53.374Z,1.8
2022-08-21T19:17:55.219Z,2.1
2022-08-21T19:20:00.209Z,1.6
2022-08-21T19:26:05.731Z,1.3
2022-08-21T19:28:11.007Z,1.5
2022-08-21T19:30:09.384Z,1.4
2022-08-21T19:32:11.207Z,1.7
2022-08-21T19:36:18.031Z,2
2022-08-21T19:38:19.890Z,1.7
2022-08-21T19:39:22.364Z,2.7
2022-08-21T19:41:24.223Z,2
2022-08-21T19:43:26.039Z,2.4
2022-08-21T19:45:28.788Z,2.3
2022-08-21T19:47:33.057Z,2.5
2022-08-21T19:49:34.674Z,1.9
2022-08-21T19:51:36.492Z,2.2
2022-08-21T19:53:38.331Z,2.2
2022-08-21T20:09:56.493Z,2.2
2022-08-21T20:14:00.654Z,2.3
2022-08-21T20:18:06.672Z,2.6
2022-08-21T20:20:08.503Z,2.6
2022-08-21T20:24:12.182Z,2.3
2022-08-21T20:26:14.037Z,1.8
2022-08-21T20:28:15.892Z,1.8
2022-08-21T20:38:54.900Z,1.3
2022-08-21T20:40:56.755Z,2.1
2022-08-21T20:43:01.967Z,2.1
2022-08-21T20:45:03.619Z,2.1
2022-08-21T20:47:09.188Z,2.2
2022-08-21T20:49:07.321Z,2.2
2022-08-21T20:51:09.182Z,1.7
2022-08-21T20:53:11.028Z,2
2022-08-21T20:57:17.958Z,1.7
2022-08-21T21:01:21.622Z,2.2
2022-08-21T21:05:25.375Z,2
2022-08-21T21:07:27.219Z,2
2022-08-21T21:09:29.093Z,1.4
2022-08-21T21:11:34.115Z,1.6
2022-08-21T21:13:35.951Z,1.9
2022-08-21T21:15:37.817Z,2.4
2022-08-21T21:17:39.682Z,2.1
2022-08-21T21:19:41.554Z,3.1
2022-08-21T21:21:43.418Z,8.7
2022-08-21T21:23:45.293Z,2.8
2022-08-21T21:25:53.880Z,3.5
2022-08-21T21:27:52.153Z,3
2022-08-21T21:32:58.556Z,2
2022-08-21T21:35:00.279Z,1.8
2022-08-21T21:37:02.192Z,2.4
2022-08-21T21:39:07.215Z,2.3
2022-08-21T21:41:09.052Z,2.2
2022-08-21T21:43:10.947Z,2.6
2022-08-21T21:45:12.809Z,2.4
2022-08-21T21:47:14.666Z,2.2
2022-08-21T21:49:16.527Z,2.4
2022-08-21T21:51:18.404Z,2
2022-08-21T21:55:25.287Z,1.9
2022-08-21T21:57:27.160Z,2.4
2022-08-21T22:01:30.890Z,2.1
2022-08-21T22:03:32.754Z,1.9
2022-08-21T22:05:34.617Z,2.1
2022-08-21T22:07:40.031Z,2.3
2022-08-21T22:09:41.525Z,2.9
2022-08-21T22:11:43.381Z,2.4
2022-08-21T22:13:45.753Z,2.7
2022-08-21T22:15:47.138Z,2.4
2022-08-21T22:17:49.006Z,2.6
2022-08-21T22:19:50.883Z,2.1
2022-08-21T22:21:55.886Z,2.1
2022-08-21T22:23:57.807Z,2.2
2022-08-21T22:25:59.631Z,2.6
2022-08-21T22:27:02.145Z,2.6
2022-08-21T22:29:05.694Z,3
2022-08-21T22:31:05.887Z,2.3
2022-08-21T22:35:12.803Z,2.5
2022-08-21T22:37:14.670Z,2.8
2022-08-21T22:39:16.540Z,2.8
2022-08-21T22:41:18.419Z,2.2
2022-08-21T22:43:20.304Z,1.8
2022-08-21T22:45:22.152Z,3.7
2022-08-21T22:47:24.034Z,2.7
2022-08-21T22:49:29.040Z,3.2
2022-08-21T22:51:32.500Z,3.5
2022-08-21T22:53:32.822Z,2.6
2022-08-21T22:55:34.680Z,2.3
2022-08-21T22:57:36.550Z,2.2
2022-08-21T22:59:38.412Z,2.6
2022-08-21T23:01:40.305Z,3.3
2022-08-21T23:03:45.392Z,5.1
2022-08-21T23:05:47.186Z,2.9
2022-08-21T23:07:49.810Z,3
2022-08-21T23:20:04.991Z,2.8
2022-08-21T23:23:09.415Z,2.7
2022-08-21T23:25:11.286Z,2.2
2022-08-21T23:29:24.843Z,3.3
2022-08-21T23:37:25.730Z,3.1
2022-08-21T23:39:27.623Z,2.2
2022-08-21T23:41:34.433Z,2.6
2022-08-21T23:43:31.384Z,2.8
2022-08-21T23:45:36.408Z,2.8
2022-08-21T23:47:38.293Z,2.6
2022-08-21T23:51:42.043Z,3.2
2022-08-21T23:53:44.262Z,3.1
2022-08-21T23:55:45.791Z,3
2022-08-21T23:57:47.698Z,2.4
2022-08-21T23:59:52.720Z,3
